Wauwatosa, WI

11:49 AM CDT on July 06, 2015 (GMT -0500)
Honey Creek, Glenview Heights | | Change Station
CLOSE
Current Station
Personal Weather Station
Location: Wauwatosa, WI
Elevation: 692 ft
Nearby Weather Stations

Elev 692 ft 43.04 °N, 88.01 °W | Updated 54 seconds ago

Clear
Clear
82.6 °F
Feels Like 87 °F
N
0.7
Wind Variable Wind from NW
Gusts 2.2 mph

Today
High -- | Low -- °F
--% Chance of Precip.
Yesterday
High -- | Low -- °F
Precip. -- in
5:19 AM 8:34 PM
Waning Gibbous, 74% visible
Pressure 29.93 in
Visibility 10.0 miles
Clouds Clear
Heat Index 87 °F
Dew Point 71 °F
Humidity 69%
Rainfall 0.00 in
Snow Depth Not available.
UV 9 out of 12
Pollen 3.30 out of 12
Air Quality Not available.
Flu Activity Not available.
METAR KMWC 061545Z AUTO 19010KT 10SM SKC 26/18 A2993

More Conditions Fewer Conditions

Pressure 29.93 in
Visibility 10.0 miles
Clouds Clear
Heat Index 87 °F
Dew Point 71 °F
Humidity 69%
Rainfall 0.00 in
Snow Depth Not available.
UV 9 out of 12
Pollen 3.30 out of 12
Air Quality Not available.
Flu Activity Not available.
METAR KMWC 061545Z AUTO 19010KT 10SM SKC 26/18 A2993

More Conditions Fewer Conditions

10-Day Weather Forecast

×

Almanac

Astronomy

Jul. 06, 2015 Rise Set
Actual Time
Civil Twilight
Nautical Twilight
Astronomical Twilight
Moon
Length of Visible Light
Length of Day
Tomorrow will be .
, % of the Moon is Illuminated

Today's Extremes

State Highs State Lows

Community

WunderPhotos

Upload Photos

1,835,599 photos uploaded!

WunderBlogs® & News

Nearby

Air Quality

  Air Quality AQ Index Pollutant
Not available.

Snow Depth

Station Depth Elevation

Earthquake Activity

City Distance Mag. Time & Date
Minimum magnitude displayed is 2.5.

Coastal Water Temperatures

Place Temperature

Stations

Nearby Weather Stations

Station Location Temp. Windchill Dew Point Humidity Wind Precip. Elev Updated Type